createdAt,value
2022-11-11T00:01:38.727Z,5.70
2022-11-11T00:04:05.434Z,8.50
2022-11-11T00:06:32.155Z,6.65
2022-11-11T00:08:58.845Z,5.30
2022-11-11T00:11:27.885Z,10.45
2022-11-11T00:13:54.782Z,7.47
2022-11-11T00:16:21.645Z,7.55
2022-11-11T00:19:06.988Z,7.80
2022-11-11T00:21:48.983Z,7.15
2022-11-11T00:24:39.128Z,6.88
2022-11-11T00:27:06.761Z,12.13
2022-11-11T00:29:33.994Z,9.63
2022-11-11T00:32:19.738Z,7.85
2022-11-11T00:35:06.430Z,11.88
2022-11-11T00:37:36.267Z,9.75
2022-11-11T00:40:03.173Z,9.60
2022-11-11T00:42:30.086Z,12.38
2022-11-11T00:44:56.896Z,8.13
2022-11-11T00:47:42.171Z,7.10
2022-11-11T00:50:38.735Z,8.15
2022-11-11T00:53:14.822Z,5.85
2022-11-11T00:55:41.561Z,7.80
2022-11-11T00:58:08.446Z,6.95
2022-11-11T01:00:35.277Z,9.38
2022-11-11T01:03:02.052Z,10.52
2022-11-11T01:05:28.824Z,8.90
2022-11-11T01:07:56.160Z,7.07
2022-11-11T01:10:41.898Z,8.30
2022-11-11T01:13:21.560Z,10.45
2022-11-11T01:15:51.128Z,6.63
2022-11-11T01:18:22.539Z,7.40
2022-11-11T01:20:58.388Z,8.10
2022-11-11T01:23:25.446Z,6.35
2022-11-11T01:25:52.774Z,5.30
2022-11-11T01:28:19.610Z,7.68
2022-11-11T01:30:46.319Z,9.80
2022-11-11T01:33:13.077Z,8.63
2022-11-11T01:35:42.776Z,7.93
2022-11-11T01:38:10.430Z,9.30
2022-11-11T01:40:45.176Z,8.77
2022-11-11T01:43:11.807Z,7.60
2022-11-11T01:45:50.498Z,7.55
2022-11-11T01:49:00.242Z,7.45
2022-11-11T01:51:55.105Z,8.18
2022-11-11T01:54:31.731Z,8.45
2022-11-11T01:57:19.756Z,6.03
2022-11-11T01:59:52.051Z,7.38
2022-11-11T02:02:37.439Z,7.38
2022-11-11T02:05:24.963Z,8.02
2022-11-11T02:07:54.689Z,11.43
2022-11-11T02:10:23.928Z,8.55
2022-11-11T02:13:12.173Z,7.82
2022-11-11T02:15:39.298Z,7.18
2022-11-11T02:18:08.855Z,10.48
2022-11-11T02:20:38.764Z,9.25
2022-11-11T02:25:54.398Z,10.13
2022-11-11T02:28:25.370Z,5.82
2022-11-11T02:30:52.148Z,19.58
2022-11-11T02:33:18.897Z,8.15
2022-11-11T02:35:56.734Z,10.93
2022-11-11T02:38:25.842Z,9.38
2022-11-11T02:41:11.060Z,9.87
2022-11-11T02:43:37.834Z,7.15
2022-11-11T02:46:09.946Z,9.65
2022-11-11T02:48:36.836Z,7.53
2022-11-11T02:51:07.341Z,5.97
2022-11-11T02:53:36.327Z,6.22
2022-11-11T02:56:03.055Z,6.60
2022-11-11T02:58:32.534Z,7.03
2022-11-11T03:00:59.399Z,6.20
2022-11-11T03:03:26.403Z,7.47
2022-11-11T03:05:53.410Z,6.88
2022-11-11T03:08:20.261Z,5.97
2022-11-11T03:10:47.687Z,10.38
2022-11-11T03:13:16.847Z,8.93
2022-11-11T03:15:43.727Z,6.10
2022-11-11T03:18:10.529Z,8.02
2022-11-11T03:20:55.816Z,6.28
2022-11-11T03:23:25.162Z,5.32
2022-11-11T03:25:57.070Z,6.20
2022-11-11T03:28:30.335Z,6.50
2022-11-11T03:31:03.143Z,9.68
2022-11-11T03:33:33.133Z,8.32
2022-11-11T03:35:59.769Z,6.63
2022-11-11T03:38:28.909Z,8.77
2022-11-11T03:40:59.098Z,6.57
2022-11-11T03:43:31.225Z,6.50
2022-11-11T03:45:59.408Z,6.97
2022-11-11T03:48:28.059Z,8.57
2022-11-11T03:50:54.980Z,8.48
2022-11-11T03:53:23.068Z,7.00
2022-11-11T03:55:51.486Z,12.43
2022-11-11T03:58:20.976Z,9.07
2022-11-11T04:00:52.281Z,6.65
2022-11-11T04:03:38.719Z,9.55
2022-11-11T04:06:24.782Z,9.73
2022-11-11T04:09:10.268Z,9.63
2022-11-11T04:11:45.817Z,9.73
2022-11-11T04:14:32.783Z,6.38
2022-11-11T04:16:59.598Z,7.30
2022-11-11T04:19:47.563Z,8.07
2022-11-11T04:22:14.248Z,7.55
2022-11-11T04:24:59.346Z,7.70
2022-11-11T04:27:25.978Z,8.90
2022-11-11T04:29:52.832Z,8.27
2022-11-11T04:32:40.333Z,9.95
2022-11-11T04:35:11.742Z,6.90
2022-11-11T04:38:12.576Z,9.27
2022-11-11T04:40:57.898Z,6.88
2022-11-11T04:43:24.877Z,8.57
2022-11-11T04:45:54.189Z,7.47
2022-11-11T04:48:23.256Z,5.87
2022-11-11T04:50:50.042Z,7.43
2022-11-11T04:53:18.836Z,8.25
2022-11-11T04:56:04.488Z,6.13
2022-11-11T04:58:33.994Z,8.32
2022-11-11T05:01:03.686Z,6.78
2022-11-11T05:03:30.348Z,7.90
2022-11-11T05:06:16.787Z,6.22
2022-11-11T05:08:56.900Z,8.88
2022-11-11T05:11:28.857Z,5.60
2022-11-11T05:14:19.043Z,8.80
2022-11-11T05:17:05.869Z,7.03
2022-11-11T05:19:51.318Z,6.70
2022-11-11T05:22:25.949Z,6.32
2022-11-11T05:25:11.273Z,13.02
2022-11-11T05:27:39.258Z,9.50
2022-11-11T05:30:08.381Z,6.47
2022-11-11T05:32:35.159Z,9.00
2022-11-11T05:35:02.041Z,5.75
2022-11-11T05:37:29.213Z,10.75
2022-11-11T05:39:58.272Z,9.32
2022-11-11T05:42:25.040Z,7.13
2022-11-11T05:44:54.127Z,6.75
2022-11-11T05:47:23.355Z,7.10
2022-11-11T05:49:49.998Z,6.33
2022-11-11T05:52:17.700Z,8.15
2022-11-11T05:54:45.298Z,10.52
2022-11-11T05:57:14.470Z,8.70
2022-11-11T05:59:41.714Z,7.43
2022-11-11T06:02:09.459Z,10.60
2022-11-11T06:04:36.294Z,9.15
2022-11-11T06:07:03.187Z,9.05
2022-11-11T06:09:32.300Z,7.70
2022-11-11T06:11:58.963Z,7.35
2022-11-11T06:14:28.150Z,11.35
2022-11-11T06:16:57.261Z,8.30
2022-11-11T06:19:23.972Z,7.22
2022-11-11T06:22:03.978Z,9.20
2022-11-11T06:26:57.327Z,8.73
2022-11-11T06:29:24.055Z,8.93
2022-11-11T06:31:50.839Z,8.32
2022-11-11T06:34:17.627Z,10.38
2022-11-11T06:36:44.462Z,8.30
2022-11-11T06:39:11.141Z,9.43
2022-11-11T06:41:37.817Z,9.63
2022-11-11T06:44:04.768Z,8.57
2022-11-11T06:46:31.562Z,12.05
2022-11-11T06:48:58.482Z,8.07
2022-11-11T06:51:25.285Z,11.07
2022-11-11T06:53:52.359Z,8.60
2022-11-11T06:56:21.427Z,7.65
2022-11-11T06:58:50.623Z,10.37
2022-11-11T07:01:17.430Z,8.30
2022-11-11T07:03:44.149Z,8.93
2022-11-11T07:06:10.816Z,10.40
2022-11-11T07:08:37.494Z,8.07
2022-11-11T07:11:12.755Z,10.30
2022-11-11T07:13:44.565Z,7.72
2022-11-11T07:16:12.203Z,10.70
2022-11-11T07:18:41.343Z,11.85
2022-11-11T07:21:10.673Z,7.77
2022-11-11T07:23:39.819Z,6.85
2022-11-11T07:26:06.478Z,6.37
2022-11-11T07:28:33.143Z,8.57
2022-11-11T07:30:59.801Z,11.05
2022-11-11T07:33:28.694Z,8.05
2022-11-11T07:35:55.400Z,8.95
2022-11-11T07:38:24.734Z,11.77
2022-11-11T07:40:56.255Z,9.57
2022-11-11T07:43:25.372Z,8.73
2022-11-11T07:45:52.126Z,7.77
2022-11-11T07:48:18.829Z,8.75
2022-11-11T07:50:45.567Z,7.47
2022-11-11T07:53:14.488Z,7.70
2022-11-11T07:55:41.225Z,8.82
2022-11-11T07:58:10.421Z,10.38
2022-11-11T08:00:39.255Z,9.10
2022-11-11T08:03:08.864Z,9.07
2022-11-11T08:05:35.889Z,10.25
2022-11-11T08:08:06.865Z,9.98
2022-11-11T08:10:34.488Z,8.73
2022-11-11T08:13:20.019Z,6.68
2022-11-11T08:15:50.802Z,11.48
2022-11-11T08:18:17.466Z,7.80
2022-11-11T08:20:49.265Z,8.30
2022-11-11T08:23:53.566Z,8.02
2022-11-11T08:26:13.788Z,9.20
2022-11-11T08:28:40.446Z,6.95
2022-11-11T08:31:07.100Z,7.15
2022-11-11T08:33:35.949Z,9.75
2022-11-11T08:36:04.200Z,5.63
2022-11-11T08:38:30.986Z,9.27
2022-11-11T08:41:05.483Z,8.20
2022-11-11T08:43:36.719Z,6.30
2022-11-11T08:46:04.806Z,6.97
2022-11-11T08:48:32.556Z,8.90
2022-11-11T08:51:01.600Z,7.32
2022-11-11T08:53:28.711Z,6.50
2022-11-11T08:56:00.711Z,7.05
2022-11-11T08:58:27.386Z,7.28
2022-11-11T09:00:54.126Z,7.60
2022-11-11T09:03:20.871Z,8.90
2022-11-11T09:05:47.711Z,7.55
2022-11-11T09:08:16.628Z,8.25
2022-11-11T09:10:43.297Z,6.82
2022-11-11T09:13:10.034Z,11.20
2022-11-11T09:15:37.024Z,5.50
2022-11-11T09:18:06.433Z,11.00
2022-11-11T09:20:33.096Z,10.27
2022-11-11T09:22:59.996Z,5.88
2022-11-11T09:25:26.727Z,6.03
2022-11-11T09:28:01.417Z,6.97
2022-11-11T09:30:29.060Z,7.82
2022-11-11T09:33:04.661Z,8.25
2022-11-11T09:35:31.937Z,5.72
2022-11-11T09:38:00.503Z,5.68
2022-11-11T09:40:38.397Z,6.90
2022-11-11T09:43:14.000Z,6.55
2022-11-11T09:46:05.452Z,6.38
2022-11-11T09:48:59.904Z,7.40
2022-11-11T09:51:32.493Z,5.45
2022-11-11T09:54:07.935Z,9.75
2022-11-11T09:56:37.168Z,8.15
2022-11-11T09:59:17.513Z,4.78
2022-11-11T10:01:53.907Z,4.80
2022-11-11T10:04:49.514Z,6.07
2022-11-11T10:07:34.900Z,6.53
2022-11-11T10:10:09.076Z,5.68
2022-11-11T10:12:46.091Z,5.15
2022-11-11T10:15:15.208Z,6.20
2022-11-11T10:18:13.275Z,6.68
2022-11-11T10:20:48.669Z,6.18
2022-11-11T10:23:24.726Z,8.15
2022-11-11T10:25:56.809Z,4.43
2022-11-11T10:28:35.698Z,6.95
2022-11-11T10:31:04.994Z,6.10
2022-11-11T10:33:46.511Z,5.07
2022-11-11T10:36:19.820Z,4.32
2022-11-11T10:39:04.735Z,3.20
2022-11-11T10:41:46.542Z,5.93
2022-11-11T10:44:36.045Z,9.77
2022-11-11T10:47:39.613Z,7.30
2022-11-11T10:50:16.353Z,4.05
2022-11-11T10:53:03.070Z,4.15
2022-11-11T10:55:41.443Z,4.70
2022-11-11T10:58:19.699Z,5.47
2022-11-11T11:00:48.979Z,3.78
2022-11-11T11:03:29.347Z,4.45
2022-11-11T11:06:14.603Z,5.65
2022-11-11T11:08:50.079Z,3.67
2022-11-11T11:11:31.101Z,4.78
2022-11-11T11:14:04.109Z,4.57
2022-11-11T11:16:38.798Z,3.95
2022-11-11T11:19:19.182Z,4.72
2022-11-11T11:21:59.936Z,3.90
2022-11-11T11:24:31.841Z,5.70
2022-11-11T11:27:05.031Z,5.70
2022-11-11T11:29:37.445Z,4.20
2022-11-11T11:32:22.006Z,3.33
2022-11-11T11:34:50.418Z,3.50
2022-11-11T11:37:18.737Z,3.70
2022-11-11T11:39:45.829Z,4.82
2022-11-11T11:42:36.802Z,3.95
2022-11-11T11:45:26.308Z,5.82
2022-11-11T11:48:32.005Z,4.55
2022-11-11T11:51:18.683Z,3.78
2022-11-11T11:53:50.007Z,9.60
2022-11-11T11:56:28.239Z,2.88
2022-11-11T11:59:13.236Z,4.90
2022-11-11T12:02:00.512Z,5.30
2022-11-11T12:04:27.165Z,4.28
2022-11-11T12:07:08.870Z,3.33
2022-11-11T12:09:49.112Z,4.47
2022-11-11T12:12:36.803Z,6.63
2022-11-11T12:15:21.596Z,2.45
2022-11-11T12:18:18.888Z,4.80
2022-11-11T12:21:13.735Z,6.20
2022-11-11T12:23:50.404Z,2.58
2022-11-11T12:26:54.976Z,2.35
2022-11-11T12:29:49.233Z,3.30
2022-11-11T12:32:18.888Z,3.75
2022-11-11T12:34:51.364Z,3.53
2022-11-11T12:37:36.804Z,5.55
2022-11-11T12:40:28.683Z,3.53
2022-11-11T12:43:28.596Z,2.22
2022-11-11T12:45:55.225Z,4.05
2022-11-11T12:48:46.089Z,5.68
2022-11-11T12:51:47.054Z,4.90
2022-11-11T12:54:37.959Z,3.20
2022-11-11T12:57:15.416Z,2.55
2022-11-11T13:00:12.291Z,3.45
2022-11-11T13:02:56.924Z,4.28
2022-11-11T13:05:32.842Z,3.67
2022-11-11T13:08:20.926Z,3.30
2022-11-11T13:11:32.840Z,5.63
2022-11-11T13:14:33.205Z,2.42
2022-11-11T13:17:01.775Z,3.03
2022-11-11T13:19:37.779Z,4.95
2022-11-11T13:22:22.099Z,4.80
2022-11-11T13:24:53.612Z,3.05
2022-11-11T13:27:25.253Z,3.03
2022-11-11T13:30:06.946Z,4.75
2022-11-11T13:33:01.300Z,5.38
2022-11-11T13:35:36.458Z,1.63
2022-11-11T13:38:06.685Z,5.28
2022-11-11T13:40:39.134Z,4.90
2022-11-11T13:43:15.330Z,3.10
2022-11-11T13:45:50.495Z,2.00
2022-11-11T13:48:38.835Z,3.40
2022-11-11T13:51:39.746Z,4.97
2022-11-11T13:54:20.475Z,1.58
2022-11-11T13:56:50.797Z,4.50
2022-11-11T13:59:38.146Z,2.70
2022-11-11T14:02:19.920Z,2.72
2022-11-11T14:05:01.829Z,3.72
2022-11-11T14:07:49.390Z,4.00
2022-11-11T14:10:19.083Z,4.25
2022-11-11T14:12:56.809Z,5.07
2022-11-11T14:15:32.705Z,3.05
2022-11-11T14:17:59.586Z,3.67
2022-11-11T14:20:42.088Z,2.40
2022-11-11T14:23:26.369Z,2.45
2022-11-11T14:26:13.845Z,6.95
2022-11-11T14:28:49.498Z,3.05
2022-11-11T14:31:16.144Z,4.15
2022-11-11T14:34:27.849Z,1.90
2022-11-11T14:37:25.299Z,5.03
2022-11-11T14:39:54.176Z,4.15
2022-11-11T14:42:36.077Z,2.67
2022-11-11T14:45:05.031Z,5.93
2022-11-11T14:47:34.829Z,2.80
2022-11-11T14:52:43.291Z,3.63
2022-11-11T14:55:15.956Z,1.90
2022-11-11T14:58:08.250Z,4.32
2022-11-11T15:00:52.412Z,2.08
2022-11-11T15:03:35.874Z,3.97
2022-11-11T15:06:16.745Z,3.55
2022-11-11T15:08:53.601Z,3.50
2022-11-11T15:11:40.987Z,2.45
2022-11-11T15:14:19.150Z,3.95
2022-11-11T15:17:10.120Z,3.53
2022-11-11T15:19:36.739Z,3.33
2022-11-11T15:22:34.460Z,4.07
2022-11-11T15:25:19.574Z,3.30
2022-11-11T15:27:55.011Z,7.10
2022-11-11T15:30:23.678Z,2.58
2022-11-11T15:33:06.177Z,2.65
2022-11-11T15:35:51.671Z,2.28
2022-11-11T15:38:19.596Z,4.35
2022-11-11T15:40:49.352Z,5.80
2022-11-11T15:43:23.110Z,2.97
2022-11-11T15:46:00.240Z,3.40
2022-11-11T15:48:28.609Z,2.53
2022-11-11T15:50:55.322Z,3.17
2022-11-11T15:53:27.679Z,3.10
2022-11-11T15:55:58.021Z,4.30
2022-11-11T15:58:29.273Z,3.10
2022-11-11T16:01:04.425Z,3.50
2022-11-11T16:03:45.893Z,2.67
2022-11-11T16:06:17.807Z,4.60
2022-11-11T16:08:47.495Z,2.97
2022-11-11T16:11:16.351Z,4.25
2022-11-11T16:13:46.563Z,5.57
2022-11-11T16:16:19.796Z,6.13
2022-11-11T16:18:54.794Z,4.28
2022-11-11T16:21:37.541Z,2.80
2022-11-11T16:24:07.289Z,5.88
2022-11-11T16:26:34.663Z,3.75
2022-11-11T16:29:01.794Z,3.50
2022-11-11T16:31:47.205Z,5.93
2022-11-11T16:34:45.020Z,3.28
2022-11-11T16:37:16.669Z,6.05
2022-11-11T16:39:45.116Z,3.58
2022-11-11T16:42:25.362Z,6.65
2022-11-11T16:44:59.712Z,3.92
2022-11-11T16:47:35.276Z,5.35
2022-11-11T16:50:25.810Z,6.20
2022-11-11T16:53:07.469Z,3.28
2022-11-11T16:55:48.941Z,4.22
2022-11-11T16:58:20.785Z,3.40
2022-11-11T17:00:58.730Z,5.97
2022-11-11T17:03:26.230Z,3.72
2022-11-11T17:06:08.485Z,6.15
2022-11-11T17:08:46.272Z,4.32
2022-11-11T17:11:39.200Z,8.80
2022-11-11T17:14:08.285Z,4.35
2022-11-11T17:16:35.091Z,3.70
2022-11-11T17:19:08.160Z,6.30
2022-11-11T17:21:34.842Z,6.20
2022-11-11T17:24:01.524Z,4.13
2022-11-11T17:26:28.334Z,5.50
2022-11-11T17:28:59.785Z,4.38
2022-11-11T17:31:26.515Z,5.63
2022-11-11T17:33:53.241Z,4.43
2022-11-11T17:36:19.881Z,4.97
2022-11-11T17:38:49.000Z,5.70
2022-11-11T17:41:16.174Z,7.10
2022-11-11T17:43:45.361Z,6.80
2022-11-11T17:46:12.078Z,6.03
2022-11-11T17:48:40.971Z,3.47
2022-11-11T17:51:07.767Z,5.35
2022-11-11T17:53:36.889Z,5.65
2022-11-11T17:56:11.228Z,7.43
2022-11-11T17:58:41.406Z,5.60
2022-11-11T18:01:10.585Z,5.68
2022-11-11T18:03:37.305Z,5.03
2022-11-11T18:06:04.342Z,6.65
2022-11-11T18:08:31.067Z,4.72
2022-11-11T18:11:03.145Z,5.15
2022-11-11T18:13:30.841Z,6.18
2022-11-11T18:16:05.763Z,5.07
2022-11-11T18:18:33.384Z,5.00
2022-11-11T18:21:05.180Z,4.45
2022-11-11T18:23:36.391Z,5.90
2022-11-11T18:26:04.025Z,6.60
2022-11-11T18:28:35.031Z,7.20
2022-11-11T18:31:06.963Z,6.13
2022-11-11T18:33:34.771Z,4.78
2022-11-11T18:36:10.113Z,8.45
2022-11-11T18:38:37.281Z,4.95
2022-11-11T18:41:09.968Z,6.18
2022-11-11T18:43:40.397Z,5.43
2022-11-11T18:46:09.955Z,4.43
2022-11-11T18:48:37.878Z,5.30
2022-11-11T18:51:05.941Z,4.70
2022-11-11T18:53:34.207Z,3.97
2022-11-11T18:56:12.401Z,6.97
2022-11-11T18:58:39.436Z,6.00
2022-11-11T19:01:10.878Z,4.60
2022-11-11T19:03:40.674Z,5.93
2022-11-11T19:06:10.927Z,5.55
2022-11-11T19:08:40.363Z,6.68
2022-11-11T19:11:08.282Z,5.80
2022-11-11T19:13:36.895Z,5.80
2022-11-11T19:16:09.628Z,5.78
2022-11-11T19:18:39.348Z,5.80
2022-11-11T19:21:15.767Z,6.75
2022-11-11T19:23:43.904Z,7.32
2022-11-11T19:26:15.531Z,5.40
2022-11-11T19:28:43.152Z,9.40
2022-11-11T19:31:15.500Z,8.48
2022-11-11T19:33:43.542Z,5.28
2022-11-11T19:36:18.235Z,7.50
2022-11-11T19:38:47.580Z,6.13
2022-11-11T19:41:15.547Z,8.77
2022-11-11T19:43:43.112Z,7.07
2022-11-11T19:46:18.143Z,6.50
2022-11-11T19:48:45.663Z,6.20
2022-11-11T19:51:14.181Z,7.70
2022-11-11T19:53:41.505Z,6.97
2022-11-11T19:56:13.554Z,8.55
2022-11-11T19:58:43.493Z,11.20
2022-11-11T20:03:42.875Z,7.20
2022-11-11T20:06:31.507Z,9.85
2022-11-11T20:09:01.218Z,6.57
2022-11-11T20:11:30.379Z,8.07
2022-11-11T20:13:57.876Z,9.37
2022-11-11T20:16:25.434Z,6.72
2022-11-11T20:18:56.816Z,9.00
2022-11-11T20:21:23.860Z,8.23
2022-11-11T20:23:54.062Z,9.13
2022-11-11T20:26:21.760Z,9.25
2022-11-11T20:28:54.838Z,12.75
2022-11-11T20:31:23.693Z,10.07
2022-11-11T20:33:50.696Z,8.20
2022-11-11T20:36:20.188Z,9.88
2022-11-11T20:38:47.269Z,9.63
2022-11-11T20:41:15.867Z,7.88
2022-11-11T20:43:43.015Z,12.38
2022-11-11T20:46:19.664Z,8.77
2022-11-11T20:48:50.613Z,11.57
2022-11-11T20:51:25.096Z,9.18
2022-11-11T20:53:56.230Z,11.68
2022-11-11T20:56:24.757Z,11.05
2022-11-11T20:58:55.293Z,13.38
2022-11-11T21:01:25.594Z,12.32
2022-11-11T21:04:00.052Z,10.60
2022-11-11T21:06:29.691Z,10.30
2022-11-11T21:08:56.905Z,11.10
2022-11-11T21:11:27.243Z,11.35
2022-11-11T21:13:56.137Z,8.70
2022-11-11T21:16:28.681Z,9.00
2022-11-11T21:18:57.666Z,10.15
2022-11-11T21:21:25.648Z,8.43
2022-11-11T21:24:01.482Z,11.82
2022-11-11T21:26:31.056Z,10.23
2022-11-11T21:28:58.441Z,8.48
2022-11-11T21:31:26.340Z,8.65
2022-11-11T21:33:57.002Z,8.82
2022-11-11T21:36:26.485Z,16.33
2022-11-11T21:38:55.764Z,11.65
2022-11-11T21:41:25.260Z,7.43
2022-11-11T21:43:53.380Z,9.88
2022-11-11T21:46:22.684Z,9.23
2022-11-11T21:48:50.384Z,11.38
2022-11-11T21:51:23.051Z,9.95
2022-11-11T21:53:54.094Z,8.80
2022-11-11T21:56:25.708Z,7.57
2022-11-11T21:58:54.599Z,6.68
2022-11-11T22:01:29.745Z,7.65
2022-11-11T22:04:02.073Z,7.57
2022-11-11T22:06:32.050Z,10.60
2022-11-11T22:11:28.732Z,7.55
2022-11-11T22:13:55.395Z,7.78
2022-11-11T22:16:28.000Z,9.40
2022-11-11T22:19:00.119Z,6.88
2022-11-11T22:21:28.623Z,7.50
2022-11-11T22:24:01.186Z,8.65
2022-11-11T22:26:32.783Z,9.35
2022-11-11T22:28:59.728Z,7.82
2022-11-11T22:31:30.897Z,9.32
2022-11-11T22:34:00.895Z,8.88
2022-11-11T22:38:57.774Z,7.45
2022-11-11T22:41:28.656Z,6.72
2022-11-11T22:44:00.676Z,6.63
2022-11-11T22:46:31.851Z,5.97
2022-11-11T22:49:01.061Z,9.05
2022-11-11T22:51:29.530Z,8.45
2022-11-11T22:54:01.702Z,9.20
2022-11-11T22:56:29.079Z,11.50
2022-11-11T22:58:56.106Z,8.10
2022-11-11T23:01:29.565Z,8.40
2022-11-11T23:03:59.654Z,9.45
2022-11-11T23:06:31.703Z,8.00
2022-11-11T23:08:59.578Z,8.73
2022-11-11T23:11:31.223Z,8.13
2022-11-11T23:14:00.875Z,8.93
2022-11-11T23:16:28.486Z,9.88
2022-11-11T23:18:55.486Z,11.02
2022-11-11T23:21:24.023Z,8.38
2022-11-11T23:23:51.602Z,8.23
2022-11-11T23:26:21.583Z,7.95
2022-11-11T23:31:18.302Z,10.32
2022-11-11T23:33:47.683Z,8.27
2022-11-11T23:36:20.326Z,9.02
2022-11-11T23:38:48.035Z,11.98
2022-11-11T23:41:17.905Z,10.52
2022-11-11T23:43:44.917Z,12.70
2022-11-11T23:46:13.839Z,8.60
2022-11-11T23:48:40.764Z,8.85
2022-11-11T23:51:07.689Z,8.73
2022-11-11T23:53:36.930Z,9.95
2022-11-11T23:56:04.859Z,9.55
2022-11-11T23:58:32.014Z,8.85
